sensor_id;sensor_type;location;lat;lon;timestamp;P1;durP1;ratioP1;P2;durP2;ratioP2
10248;SDS011;5169;50.560;9.714;2023-03-20T00:01:55;7.20;;;4.30;;
10248;SDS011;5169;50.560;9.714;2023-03-20T00:04:23;4.70;;;4.20;;
10248;SDS011;5169;50.560;9.714;2023-03-20T00:06:50;5.67;;;4.40;;
10248;SDS011;5169;50.560;9.714;2023-03-20T00:09:15;5.30;;;4.33;;
10248;SDS011;5169;50.560;9.714;2023-03-20T00:11:51;4.87;;;4.17;;
10248;SDS011;5169;50.560;9.714;2023-03-20T00:14:19;4.80;;;4.03;;
10248;SDS011;5169;50.560;9.714;2023-03-20T00:16:48;6.27;;;4.43;;
10248;SDS011;5169;50.560;9.714;2023-03-20T00:19:16;5.37;;;4.27;;
10248;SDS011;5169;50.560;9.714;2023-03-20T00:21:54;4.30;;;3.90;;
10248;SDS011;5169;50.560;9.714;2023-03-20T00:24:20;4.83;;;4.10;;
10248;SDS011;5169;50.560;9.714;2023-03-20T00:26:47;4.57;;;3.93;;
10248;SDS011;5169;50.560;9.714;2023-03-20T00:29:35;4.60;;;3.87;;
10248;SDS011;5169;50.560;9.714;2023-03-20T00:32:00;5.93;;;4.20;;
10248;SDS011;5169;50.560;9.714;2023-03-20T00:34:28;4.20;;;3.80;;
10248;SDS011;5169;50.560;9.714;2023-03-20T00:36:55;4.37;;;3.70;;
10248;SDS011;5169;50.560;9.714;2023-03-20T00:39:22;4.77;;;4.27;;
10248;SDS011;5169;50.560;9.714;2023-03-20T00:44:39;4.33;;;3.93;;
10248;SDS011;5169;50.560;9.714;2023-03-20T00:47:18;5.87;;;3.63;;
10248;SDS011;5169;50.560;9.714;2023-03-20T00:49:47;4.90;;;3.80;;
10248;SDS011;5169;50.560;9.714;2023-03-20T00:52:14;4.30;;;3.90;;
10248;SDS011;5169;50.560;9.714;2023-03-20T00:54:42;4.07;;;3.60;;
10248;SDS011;5169;50.560;9.714;2023-03-20T00:57:10;5.07;;;3.80;;
10248;SDS011;5169;50.560;9.714;2023-03-20T00:59:41;4.50;;;3.67;;
10248;SDS011;5169;50.560;9.714;2023-03-20T01:02:22;5.23;;;4.00;;
10248;SDS011;5169;50.560;9.714;2023-03-20T01:04:53;4.20;;;3.73;;
10248;SDS011;5169;50.560;9.714;2023-03-20T01:07:19;5.87;;;4.17;;
10248;SDS011;5169;50.560;9.714;2023-03-20T01:09:44;7.33;;;4.53;;
10248;SDS011;5169;50.560;9.714;2023-03-20T01:12:11;5.53;;;4.53;;
10248;SDS011;5169;50.560;9.714;2023-03-20T01:14:41;4.57;;;4.10;;
10248;SDS011;5169;50.560;9.714;2023-03-20T01:17:16;5.23;;;4.00;;
10248;SDS011;5169;50.560;9.714;2023-03-20T01:19:44;5.10;;;4.43;;
10248;SDS011;5169;50.560;9.714;2023-03-20T01:22:10;5.97;;;4.43;;
10248;SDS011;5169;50.560;9.714;2023-03-20T01:24:38;5.03;;;4.43;;
10248;SDS011;5169;50.560;9.714;2023-03-20T01:27:14;5.37;;;4.70;;
10248;SDS011;5169;50.560;9.714;2023-03-20T01:29:41;7.43;;;4.50;;
10248;SDS011;5169;50.560;9.714;2023-03-20T01:32:11;5.67;;;4.90;;
10248;SDS011;5169;50.560;9.714;2023-03-20T01:34:38;6.20;;;5.07;;
10248;SDS011;5169;50.560;9.714;2023-03-20T01:37:05;6.57;;;5.27;;
10248;SDS011;5169;50.560;9.714;2023-03-20T01:39:37;5.33;;;4.80;;
10248;SDS011;5169;50.560;9.714;2023-03-20T01:42:05;6.27;;;5.43;;
10248;SDS011;5169;50.560;9.714;2023-03-20T01:44:32;6.93;;;5.83;;
10248;SDS011;5169;50.560;9.714;2023-03-20T01:47:10;7.07;;;5.50;;
10248;SDS011;5169;50.560;9.714;2023-03-20T01:52:33;6.37;;;5.53;;
10248;SDS011;5169;50.560;9.714;2023-03-20T01:55:01;6.77;;;5.97;;
10248;SDS011;5169;50.560;9.714;2023-03-20T01:57:28;7.47;;;5.70;;
10248;SDS011;5169;50.560;9.714;2023-03-20T02:00:04;6.10;;;5.50;;
10248;SDS011;5169;50.560;9.714;2023-03-20T02:02:34;8.77;;;6.20;;
10248;SDS011;5169;50.560;9.714;2023-03-20T02:05:05;6.70;;;6.10;;
10248;SDS011;5169;50.560;9.714;2023-03-20T02:07:35;8.43;;;6.77;;
10248;SDS011;5169;50.560;9.714;2023-03-20T02:10:08;9.53;;;6.83;;
10248;SDS011;5169;50.560;9.714;2023-03-20T02:12:37;12.53;;;8.77;;
10248;SDS011;5169;50.560;9.714;2023-03-20T02:15:04;12.50;;;8.57;;
10248;SDS011;5169;50.560;9.714;2023-03-20T02:17:31;14.27;;;9.63;;
10248;SDS011;5169;50.560;9.714;2023-03-20T02:33:53;10.13;;;8.10;;
10248;SDS011;5169;50.560;9.714;2023-03-20T02:36:52;9.03;;;7.60;;
10248;SDS011;5169;50.560;9.714;2023-03-20T02:44:46;8.47;;;7.57;;
10248;SDS011;5169;50.560;9.714;2023-03-20T02:47:30;9.20;;;7.97;;
10248;SDS011;5169;50.560;9.714;2023-03-20T02:52:49;8.80;;;7.23;;
10248;SDS011;5169;50.560;9.714;2023-03-20T03:03:34;8.87;;;7.97;;
10248;SDS011;5169;50.560;9.714;2023-03-20T03:06:17;9.47;;;7.73;;
10248;SDS011;5169;50.560;9.714;2023-03-20T03:12:10;8.80;;;7.90;;
10248;SDS011;5169;50.560;9.714;2023-03-20T03:17:19;10.90;;;8.40;;
10248;SDS011;5169;50.560;9.714;2023-03-20T03:19:52;9.33;;;8.33;;
10248;SDS011;5169;50.560;9.714;2023-03-20T03:22:24;11.33;;;8.67;;
10248;SDS011;5169;50.560;9.714;2023-03-20T03:24:54;9.47;;;8.47;;
10248;SDS011;5169;50.560;9.714;2023-03-20T03:27:21;10.40;;;8.77;;
10248;SDS011;5169;50.560;9.714;2023-03-20T03:30:01;11.23;;;8.97;;
10248;SDS011;5169;50.560;9.714;2023-03-20T03:32:36;11.73;;;9.87;;
10248;SDS011;5169;50.560;9.714;2023-03-20T03:35:09;13.97;;;11.07;;
10248;SDS011;5169;50.560;9.714;2023-03-20T03:37:46;12.20;;;10.20;;
10248;SDS011;5169;50.560;9.714;2023-03-20T03:45:48;11.70;;;9.57;;
10248;SDS011;5169;50.560;9.714;2023-03-20T03:48:22;10.93;;;9.73;;
10248;SDS011;5169;50.560;9.714;2023-03-20T03:51:02;11.70;;;10.03;;
10248;SDS011;5169;50.560;9.714;2023-03-20T03:53:33;12.57;;;10.57;;
10248;SDS011;5169;50.560;9.714;2023-03-20T03:56:03;12.63;;;10.40;;
10248;SDS011;5169;50.560;9.714;2023-03-20T03:58:33;13.27;;;10.67;;
10248;SDS011;5169;50.560;9.714;2023-03-20T04:01:09;12.60;;;10.53;;
10248;SDS011;5169;50.560;9.714;2023-03-20T04:03:39;11.93;;;10.33;;
10248;SDS011;5169;50.560;9.714;2023-03-20T04:06:07;12.57;;;10.77;;
10248;SDS011;5169;50.560;9.714;2023-03-20T04:08:39;13.50;;;11.10;;
10248;SDS011;5169;50.560;9.714;2023-03-20T04:11:05;11.63;;;10.40;;
10248;SDS011;5169;50.560;9.714;2023-03-20T04:13:38;12.73;;;11.10;;
10248;SDS011;5169;50.560;9.714;2023-03-20T04:16:08;14.90;;;11.60;;
10248;SDS011;5169;50.560;9.714;2023-03-20T04:18:40;13.13;;;11.10;;
10248;SDS011;5169;50.560;9.714;2023-03-20T04:21:07;14.43;;;11.37;;
10248;SDS011;5169;50.560;9.714;2023-03-20T04:23:33;13.17;;;11.33;;
10248;SDS011;5169;50.560;9.714;2023-03-20T04:25:59;16.30;;;11.70;;
10248;SDS011;5169;50.560;9.714;2023-03-20T04:28:25;16.93;;;11.60;;
10248;SDS011;5169;50.560;9.714;2023-03-20T04:30:55;15.20;;;11.53;;
10248;SDS011;5169;50.560;9.714;2023-03-20T04:33:25;17.10;;;11.93;;
10248;SDS011;5169;50.560;9.714;2023-03-20T04:35:54;18.33;;;12.87;;
10248;SDS011;5169;50.560;9.714;2023-03-20T04:38:25;14.80;;;11.00;;
10248;SDS011;5169;50.560;9.714;2023-03-20T04:40:51;14.47;;;12.13;;
10248;SDS011;5169;50.560;9.714;2023-03-20T04:43:16;14.20;;;11.73;;
10248;SDS011;5169;50.560;9.714;2023-03-20T04:45:42;14.37;;;11.57;;
10248;SDS011;5169;50.560;9.714;2023-03-20T04:48:08;15.23;;;12.40;;
10248;SDS011;5169;50.560;9.714;2023-03-20T04:50:34;15.87;;;12.33;;
10248;SDS011;5169;50.560;9.714;2023-03-20T04:52:59;14.50;;;11.73;;
10248;SDS011;5169;50.560;9.714;2023-03-20T04:55:25;13.87;;;12.10;;
10248;SDS011;5169;50.560;9.714;2023-03-20T04:57:51;14.30;;;11.63;;
10248;SDS011;5169;50.560;9.714;2023-03-20T05:00:19;16.13;;;11.57;;
10248;SDS011;5169;50.560;9.714;2023-03-20T05:02:47;14.97;;;11.73;;
10248;SDS011;5169;50.560;9.714;2023-03-20T05:05:15;14.00;;;11.47;;
10248;SDS011;5169;50.560;9.714;2023-03-20T05:07:41;15.57;;;12.97;;
10248;SDS011;5169;50.560;9.714;2023-03-20T05:10:09;14.97;;;12.00;;
10248;SDS011;5169;50.560;9.714;2023-03-20T05:12:38;13.53;;;11.43;;
10248;SDS011;5169;50.560;9.714;2023-03-20T05:15:08;15.83;;;11.43;;
10248;SDS011;5169;50.560;9.714;2023-03-20T05:17:37;17.60;;;12.93;;
10248;SDS011;5169;50.560;9.714;2023-03-20T05:20:02;15.70;;;12.30;;
10248;SDS011;5169;50.560;9.714;2023-03-20T05:22:29;17.07;;;12.93;;
10248;SDS011;5169;50.560;9.714;2023-03-20T05:24:54;16.07;;;12.40;;
10248;SDS011;5169;50.560;9.714;2023-03-20T05:27:20;18.13;;;14.10;;
10248;SDS011;5169;50.560;9.714;2023-03-20T05:29:48;17.87;;;12.80;;
10248;SDS011;5169;50.560;9.714;2023-03-20T05:32:14;18.47;;;14.43;;
10248;SDS011;5169;50.560;9.714;2023-03-20T05:34:39;18.97;;;14.33;;
10248;SDS011;5169;50.560;9.714;2023-03-20T05:37:05;23.23;;;14.30;;
10248;SDS011;5169;50.560;9.714;2023-03-20T05:39:31;23.00;;;15.63;;
10248;SDS011;5169;50.560;9.714;2023-03-20T05:41:59;20.23;;;15.77;;
10248;SDS011;5169;50.560;9.714;2023-03-20T05:44:24;21.70;;;15.87;;
10248;SDS011;5169;50.560;9.714;2023-03-20T05:46:53;24.23;;;16.37;;
10248;SDS011;5169;50.560;9.714;2023-03-20T05:49:18;29.47;;;17.73;;
10248;SDS011;5169;50.560;9.714;2023-03-20T05:51:44;24.87;;;17.10;;
10248;SDS011;5169;50.560;9.714;2023-03-20T05:54:09;22.43;;;16.47;;
10248;SDS011;5169;50.560;9.714;2023-03-20T05:56:37;24.63;;;17.40;;
10248;SDS011;5169;50.560;9.714;2023-03-20T05:59:03;25.10;;;17.63;;
10248;SDS011;5169;50.560;9.714;2023-03-20T06:01:29;25.40;;;18.10;;
10248;SDS011;5169;50.560;9.714;2023-03-20T06:03:55;25.60;;;18.50;;
10248;SDS011;5169;50.560;9.714;2023-03-20T06:06:21;24.70;;;17.83;;
10248;SDS011;5169;50.560;9.714;2023-03-20T06:08:46;25.20;;;18.67;;
10248;SDS011;5169;50.560;9.714;2023-03-20T06:11:14;26.40;;;18.93;;
10248;SDS011;5169;50.560;9.714;2023-03-20T06:13:40;27.17;;;19.67;;
10248;SDS011;5169;50.560;9.714;2023-03-20T06:16:05;26.83;;;19.27;;
10248;SDS011;5169;50.560;9.714;2023-03-20T06:18:32;27.77;;;19.03;;
10248;SDS011;5169;50.560;9.714;2023-03-20T06:20:57;26.50;;;18.67;;
10248;SDS011;5169;50.560;9.714;2023-03-20T06:23:23;25.70;;;18.93;;
10248;SDS011;5169;50.560;9.714;2023-03-20T06:25:51;27.40;;;18.97;;
10248;SDS011;5169;50.560;9.714;2023-03-20T06:28:17;28.97;;;19.00;;
10248;SDS011;5169;50.560;9.714;2023-03-20T06:30:43;29.30;;;19.60;;
10248;SDS011;5169;50.560;9.714;2023-03-20T06:33:11;28.83;;;19.83;;
10248;SDS011;5169;50.560;9.714;2023-03-20T06:35:36;29.40;;;19.50;;
10248;SDS011;5169;50.560;9.714;2023-03-20T06:38:04;30.50;;;19.20;;
10248;SDS011;5169;50.560;9.714;2023-03-20T06:40:30;29.03;;;19.53;;
10248;SDS011;5169;50.560;9.714;2023-03-20T06:42:58;30.40;;;19.93;;
10248;SDS011;5169;50.560;9.714;2023-03-20T06:45:23;27.47;;;19.63;;
10248;SDS011;5169;50.560;9.714;2023-03-20T06:47:51;30.90;;;20.47;;
10248;SDS011;5169;50.560;9.714;2023-03-20T06:50:17;28.30;;;20.20;;
10248;SDS011;5169;50.560;9.714;2023-03-20T06:52:42;28.93;;;20.50;;
10248;SDS011;5169;50.560;9.714;2023-03-20T06:55:08;28.57;;;20.90;;
10248;SDS011;5169;50.560;9.714;2023-03-20T06:57:34;31.00;;;20.00;;
10248;SDS011;5169;50.560;9.714;2023-03-20T07:00:00;29.27;;;20.27;;
10248;SDS011;5169;50.560;9.714;2023-03-20T07:02:25;31.33;;;20.53;;
10248;SDS011;5169;50.560;9.714;2023-03-20T07:04:52;27.20;;;20.10;;
10248;SDS011;5169;50.560;9.714;2023-03-20T07:07:17;28.43;;;19.53;;
10248;SDS011;5169;50.560;9.714;2023-03-20T07:09:43;29.40;;;20.57;;
10248;SDS011;5169;50.560;9.714;2023-03-20T07:12:12;28.60;;;20.13;;
10248;SDS011;5169;50.560;9.714;2023-03-20T07:14:39;28.07;;;18.90;;
10248;SDS011;5169;50.560;9.714;2023-03-20T07:17:06;27.10;;;20.07;;
10248;SDS011;5169;50.560;9.714;2023-03-20T07:19:33;28.63;;;19.13;;
10248;SDS011;5169;50.560;9.714;2023-03-20T07:22:00;31.43;;;18.37;;
10248;SDS011;5169;50.560;9.714;2023-03-20T07:24:31;30.60;;;20.03;;
10248;SDS011;5169;50.560;9.714;2023-03-20T07:26:57;32.73;;;20.13;;
10248;SDS011;5169;50.560;9.714;2023-03-20T07:29:25;30.20;;;19.87;;
10248;SDS011;5169;50.560;9.714;2023-03-20T07:31:51;33.47;;;19.73;;
10248;SDS011;5169;50.560;9.714;2023-03-20T07:34:17;33.27;;;19.27;;
10248;SDS011;5169;50.560;9.714;2023-03-20T07:36:43;33.63;;;19.97;;
10248;SDS011;5169;50.560;9.714;2023-03-20T07:39:09;33.97;;;19.87;;
10248;SDS011;5169;50.560;9.714;2023-03-20T07:41:36;34.23;;;20.33;;
10248;SDS011;5169;50.560;9.714;2023-03-20T07:44:01;37.57;;;20.50;;
10248;SDS011;5169;50.560;9.714;2023-03-20T07:46:27;34.20;;;20.13;;
10248;SDS011;5169;50.560;9.714;2023-03-20T07:48:53;36.03;;;20.43;;
10248;SDS011;5169;50.560;9.714;2023-03-20T07:51:24;34.33;;;19.70;;
10248;SDS011;5169;50.560;9.714;2023-03-20T07:53:50;36.53;;;20.33;;
10248;SDS011;5169;50.560;9.714;2023-03-20T07:56:16;37.97;;;20.70;;
10248;SDS011;5169;50.560;9.714;2023-03-20T07:58:45;35.57;;;20.00;;
10248;SDS011;5169;50.560;9.714;2023-03-20T08:01:10;34.00;;;19.87;;
10248;SDS011;5169;50.560;9.714;2023-03-20T08:03:36;32.87;;;19.90;;
10248;SDS011;5169;50.560;9.714;2023-03-20T08:06:03;33.13;;;19.17;;
10248;SDS011;5169;50.560;9.714;2023-03-20T08:08:31;32.67;;;18.80;;
10248;SDS011;5169;50.560;9.714;2023-03-20T08:10:57;31.63;;;19.23;;
10248;SDS011;5169;50.560;9.714;2023-03-20T08:13:23;32.40;;;18.43;;
10248;SDS011;5169;50.560;9.714;2023-03-20T08:15:51;31.83;;;20.37;;
10248;SDS011;5169;50.560;9.714;2023-03-20T08:18:16;34.03;;;20.00;;
10248;SDS011;5169;50.560;9.714;2023-03-20T08:20:43;34.13;;;20.27;;
10248;SDS011;5169;50.560;9.714;2023-03-20T08:23:09;36.33;;;20.37;;
10248;SDS011;5169;50.560;9.714;2023-03-20T08:25:37;35.40;;;19.73;;
10248;SDS011;5169;50.560;9.714;2023-03-20T08:28:06;31.97;;;19.90;;
10248;SDS011;5169;50.560;9.714;2023-03-20T08:30:31;32.80;;;20.33;;
10248;SDS011;5169;50.560;9.714;2023-03-20T08:33:02;32.83;;;18.90;;
10248;SDS011;5169;50.560;9.714;2023-03-20T08:35:32;35.40;;;19.33;;
10248;SDS011;5169;50.560;9.714;2023-03-20T08:37:58;33.27;;;18.67;;
10248;SDS011;5169;50.560;9.714;2023-03-20T08:40:25;28.60;;;17.80;;
10248;SDS011;5169;50.560;9.714;2023-03-20T08:42:50;31.30;;;19.57;;
10248;SDS011;5169;50.560;9.714;2023-03-20T08:45:18;29.77;;;18.57;;
10248;SDS011;5169;50.560;9.714;2023-03-20T08:47:47;32.10;;;18.80;;
10248;SDS011;5169;50.560;9.714;2023-03-20T08:50:13;31.47;;;17.70;;
10248;SDS011;5169;50.560;9.714;2023-03-20T08:52:39;30.77;;;19.33;;
10248;SDS011;5169;50.560;9.714;2023-03-20T08:55:08;36.00;;;20.07;;
10248;SDS011;5169;50.560;9.714;2023-03-20T08:57:41;36.80;;;19.70;;
10248;SDS011;5169;50.560;9.714;2023-03-20T09:00:10;36.63;;;20.20;;
10248;SDS011;5169;50.560;9.714;2023-03-20T09:02:37;32.03;;;20.03;;
10248;SDS011;5169;50.560;9.714;2023-03-20T09:05:05;32.30;;;19.57;;
10248;SDS011;5169;50.560;9.714;2023-03-20T09:07:31;36.67;;;19.20;;
10248;SDS011;5169;50.560;9.714;2023-03-20T09:09:57;38.23;;;20.77;;
10248;SDS011;5169;50.560;9.714;2023-03-20T09:12:23;33.57;;;19.67;;
10248;SDS011;5169;50.560;9.714;2023-03-20T09:14:53;30.97;;;18.83;;
10248;SDS011;5169;50.560;9.714;2023-03-20T09:17:21;35.10;;;19.60;;
10248;SDS011;5169;50.560;9.714;2023-03-20T09:19:49;32.83;;;19.57;;
10248;SDS011;5169;50.560;9.714;2023-03-20T09:22:15;35.53;;;18.97;;
10248;SDS011;5169;50.560;9.714;2023-03-20T09:24:46;36.17;;;19.73;;
10248;SDS011;5169;50.560;9.714;2023-03-20T09:27:11;29.90;;;18.87;;
10248;SDS011;5169;50.560;9.714;2023-03-20T09:29:40;32.43;;;17.97;;
10248;SDS011;5169;50.560;9.714;2023-03-20T09:32:08;32.10;;;18.20;;
10248;SDS011;5169;50.560;9.714;2023-03-20T09:34:36;31.43;;;18.87;;
10248;SDS011;5169;50.560;9.714;2023-03-20T09:37:05;33.00;;;19.83;;
10248;SDS011;5169;50.560;9.714;2023-03-20T09:39:33;33.30;;;18.97;;
10248;SDS011;5169;50.560;9.714;2023-03-20T09:42:00;35.60;;;20.40;;
10248;SDS011;5169;50.560;9.714;2023-03-20T09:47:53;30.87;;;18.63;;
10248;SDS011;5169;50.560;9.714;2023-03-20T09:50:30;33.07;;;18.87;;
10248;SDS011;5169;50.560;9.714;2023-03-20T09:55:33;32.63;;;19.70;;
10248;SDS011;5169;50.560;9.714;2023-03-20T09:58:11;33.33;;;18.87;;
10248;SDS011;5169;50.560;9.714;2023-03-20T10:00:43;35.13;;;20.13;;
10248;SDS011;5169;50.560;9.714;2023-03-20T10:03:16;34.03;;;20.57;;
10248;SDS011;5169;50.560;9.714;2023-03-20T10:08:26;33.20;;;19.93;;
10248;SDS011;5169;50.560;9.714;2023-03-20T10:11:05;33.83;;;20.33;;
10248;SDS011;5169;50.560;9.714;2023-03-20T10:19:23;32.77;;;19.63;;
10248;SDS011;5169;50.560;9.714;2023-03-20T10:24:41;31.10;;;18.20;;
10248;SDS011;5169;50.560;9.714;2023-03-20T10:27:25;29.33;;;18.20;;
10248;SDS011;5169;50.560;9.714;2023-03-20T10:41:00;30.63;;;17.43;;
10248;SDS011;5169;50.560;9.714;2023-03-20T10:43:34;29.13;;;16.70;;
10248;SDS011;5169;50.560;9.714;2023-03-20T10:46:04;28.33;;;16.93;;
10248;SDS011;5169;50.560;9.714;2023-03-20T10:51:02;26.53;;;16.00;;
10248;SDS011;5169;50.560;9.714;2023-03-20T10:56:31;26.37;;;15.67;;
10248;SDS011;5169;50.560;9.714;2023-03-20T11:02:11;26.70;;;15.93;;
10248;SDS011;5169;50.560;9.714;2023-03-20T11:04:39;25.10;;;15.40;;
10248;SDS011;5169;50.560;9.714;2023-03-20T11:09:39;22.10;;;14.67;;
10248;SDS011;5169;50.560;9.714;2023-03-20T11:12:12;22.33;;;14.10;;
10248;SDS011;5169;50.560;9.714;2023-03-20T11:14:42;22.53;;;14.00;;
10248;SDS011;5169;50.560;9.714;2023-03-20T11:17:08;24.27;;;14.97;;
10248;SDS011;5169;50.560;9.714;2023-03-20T11:19:36;19.93;;;13.87;;
10248;SDS011;5169;50.560;9.714;2023-03-20T11:22:06;20.90;;;12.83;;
10248;SDS011;5169;50.560;9.714;2023-03-20T11:24:41;21.07;;;13.50;;
10248;SDS011;5169;50.560;9.714;2023-03-20T11:27:16;20.70;;;13.07;;
10248;SDS011;5169;50.560;9.714;2023-03-20T11:29:45;19.53;;;11.37;;
10248;SDS011;5169;50.560;9.714;2023-03-20T11:37:43;17.77;;;12.20;;
10248;SDS011;5169;50.560;9.714;2023-03-20T11:42:36;19.67;;;11.77;;
10248;SDS011;5169;50.560;9.714;2023-03-20T11:45:03;16.97;;;11.63;;
10248;SDS011;5169;50.560;9.714;2023-03-20T11:47:32;17.60;;;11.63;;
10248;SDS011;5169;50.560;9.714;2023-03-20T11:50:00;19.33;;;12.50;;
10248;SDS011;5169;50.560;9.714;2023-03-20T11:52:32;16.60;;;11.77;;
10248;SDS011;5169;50.560;9.714;2023-03-20T11:55:05;16.30;;;12.23;;
10248;SDS011;5169;50.560;9.714;2023-03-20T11:57:51;18.00;;;11.90;;
10248;SDS011;5169;50.560;9.714;2023-03-20T12:00:28;19.30;;;12.90;;
10248;SDS011;5169;50.560;9.714;2023-03-20T12:03:31;17.90;;;12.50;;
10248;SDS011;5169;50.560;9.714;2023-03-20T12:06:15;17.60;;;12.13;;
10248;SDS011;5169;50.560;9.714;2023-03-20T12:08:45;18.83;;;12.60;;
10248;SDS011;5169;50.560;9.714;2023-03-20T12:14:11;19.87;;;12.03;;
10248;SDS011;5169;50.560;9.714;2023-03-20T12:16:47;16.93;;;11.40;;
10248;SDS011;5169;50.560;9.714;2023-03-20T12:19:17;16.80;;;11.47;;
10248;SDS011;5169;50.560;9.714;2023-03-20T12:21:58;18.93;;;12.87;;
10248;SDS011;5169;50.560;9.714;2023-03-20T12:24:35;17.07;;;12.10;;
10248;SDS011;5169;50.560;9.714;2023-03-20T12:29:47;19.30;;;12.17;;
10248;SDS011;5169;50.560;9.714;2023-03-20T12:35:28;21.13;;;13.77;;
10248;SDS011;5169;50.560;9.714;2023-03-20T12:37:57;22.17;;;14.73;;
10248;SDS011;5169;50.560;9.714;2023-03-20T12:40:40;18.90;;;12.90;;
10248;SDS011;5169;50.560;9.714;2023-03-20T12:43:14;19.57;;;13.43;;
10248;SDS011;5169;50.560;9.714;2023-03-20T12:51:10;17.67;;;12.17;;
10248;SDS011;5169;50.560;9.714;2023-03-20T13:05:02;13.97;;;10.30;;
10248;SDS011;5169;50.560;9.714;2023-03-20T13:13:42;16.00;;;10.50;;
10248;SDS011;5169;50.560;9.714;2023-03-20T13:16:29;15.13;;;10.60;;
10248;SDS011;5169;50.560;9.714;2023-03-20T13:37:39;14.77;;;11.00;;
10248;SDS011;5169;50.560;9.714;2023-03-20T13:45:23;19.27;;;13.20;;
10248;SDS011;5169;50.560;9.714;2023-03-20T13:47:50;18.30;;;13.20;;
10248;SDS011;5169;50.560;9.714;2023-03-20T13:50:36;17.53;;;13.30;;
10248;SDS011;5169;50.560;9.714;2023-03-20T13:55:54;19.73;;;12.50;;
10248;SDS011;5169;50.560;9.714;2023-03-20T14:03:42;15.80;;;12.07;;
10248;SDS011;5169;50.560;9.714;2023-03-20T14:08:47;16.03;;;12.00;;
10248;SDS011;5169;50.560;9.714;2023-03-20T14:13:49;18.67;;;12.97;;
10248;SDS011;5169;50.560;9.714;2023-03-20T14:16:18;16.07;;;11.93;;
10248;SDS011;5169;50.560;9.714;2023-03-20T14:18:44;15.87;;;11.37;;
10248;SDS011;5169;50.560;9.714;2023-03-20T14:21:14;16.67;;;11.93;;
10248;SDS011;5169;50.560;9.714;2023-03-20T14:23:56;15.30;;;10.50;;
10248;SDS011;5169;50.560;9.714;2023-03-20T14:26:28;16.53;;;10.77;;
10248;SDS011;5169;50.560;9.714;2023-03-20T14:31:37;16.07;;;11.73;;
10248;SDS011;5169;50.560;9.714;2023-03-20T14:39:31;15.07;;;10.87;;
10248;SDS011;5169;50.560;9.714;2023-03-20T14:42:28;16.00;;;11.50;;
10248;SDS011;5169;50.560;9.714;2023-03-20T14:50:35;16.33;;;10.83;;
10248;SDS011;5169;50.560;9.714;2023-03-20T14:53:19;16.23;;;11.57;;
10248;SDS011;5169;50.560;9.714;2023-03-20T14:58:35;14.80;;;10.33;;
10248;SDS011;5169;50.560;9.714;2023-03-20T15:01:02;12.40;;;9.57;;
10248;SDS011;5169;50.560;9.714;2023-03-20T15:03:32;14.97;;;10.10;;
10248;SDS011;5169;50.560;9.714;2023-03-20T15:06:05;17.20;;;10.17;;
10248;SDS011;5169;50.560;9.714;2023-03-20T15:08:36;14.03;;;9.90;;
10248;SDS011;5169;50.560;9.714;2023-03-20T15:11:12;14.10;;;10.33;;
10248;SDS011;5169;50.560;9.714;2023-03-20T15:13:39;15.67;;;9.50;;
10248;SDS011;5169;50.560;9.714;2023-03-20T15:16:08;13.03;;;10.13;;
10248;SDS011;5169;50.560;9.714;2023-03-20T15:18:41;13.73;;;9.83;;
10248;SDS011;5169;50.560;9.714;2023-03-20T15:21:12;13.97;;;10.00;;
10248;SDS011;5169;50.560;9.714;2023-03-20T15:23:44;14.60;;;9.47;;
10248;SDS011;5169;50.560;9.714;2023-03-20T15:26:13;14.00;;;10.13;;
10248;SDS011;5169;50.560;9.714;2023-03-20T15:28:39;12.73;;;9.23;;
10248;SDS011;5169;50.560;9.714;2023-03-20T15:31:11;9.50;;;7.13;;
10248;SDS011;5169;50.560;9.714;2023-03-20T15:33:53;8.20;;;6.67;;
10248;SDS011;5169;50.560;9.714;2023-03-20T15:36:27;6.63;;;5.20;;
10248;SDS011;5169;50.560;9.714;2023-03-20T15:39:05;8.93;;;6.07;;
10248;SDS011;5169;50.560;9.714;2023-03-20T15:41:43;7.63;;;5.57;;
10248;SDS011;5169;50.560;9.714;2023-03-20T15:44:22;7.47;;;5.90;;
10248;SDS011;5169;50.560;9.714;2023-03-20T15:49:38;6.97;;;4.93;;
10248;SDS011;5169;50.560;9.714;2023-03-20T15:55:04;6.70;;;4.40;;
10248;SDS011;5169;50.560;9.714;2023-03-20T15:57:37;6.50;;;4.27;;
10248;SDS011;5169;50.560;9.714;2023-03-20T16:00:08;5.80;;;4.30;;
10248;SDS011;5169;50.560;9.714;2023-03-20T16:02:37;6.70;;;4.10;;
10248;SDS011;5169;50.560;9.714;2023-03-20T16:05:10;6.13;;;4.40;;
10248;SDS011;5169;50.560;9.714;2023-03-20T16:07:40;7.53;;;3.90;;
10248;SDS011;5169;50.560;9.714;2023-03-20T16:10:20;5.47;;;4.03;;
10248;SDS011;5169;50.560;9.714;2023-03-20T16:12:58;4.20;;;3.30;;
10248;SDS011;5169;50.560;9.714;2023-03-20T16:15:26;4.93;;;3.47;;
10248;SDS011;5169;50.560;9.714;2023-03-20T16:17:56;5.13;;;3.20;;
10248;SDS011;5169;50.560;9.714;2023-03-20T16:20:24;5.53;;;3.60;;
10248;SDS011;5169;50.560;9.714;2023-03-20T16:22:54;4.67;;;2.80;;
10248;SDS011;5169;50.560;9.714;2023-03-20T16:25:24;4.17;;;2.43;;
10248;SDS011;5169;50.560;9.714;2023-03-20T16:27:52;4.50;;;2.30;;
10248;SDS011;5169;50.560;9.714;2023-03-20T16:30:24;4.90;;;2.33;;
10248;SDS011;5169;50.560;9.714;2023-03-20T16:32:57;2.67;;;1.93;;
10248;SDS011;5169;50.560;9.714;2023-03-20T16:35:41;2.80;;;2.03;;
10248;SDS011;5169;50.560;9.714;2023-03-20T16:38:25;2.30;;;1.60;;
10248;SDS011;5169;50.560;9.714;2023-03-20T16:43:48;3.10;;;2.23;;
10248;SDS011;5169;50.560;9.714;2023-03-20T16:46:22;4.47;;;2.00;;
10248;SDS011;5169;50.560;9.714;2023-03-20T16:48:56;2.60;;;1.47;;
10248;SDS011;5169;50.560;9.714;2023-03-20T16:51:26;4.13;;;2.20;;
10248;SDS011;5169;50.560;9.714;2023-03-20T16:53:55;2.90;;;2.17;;
10248;SDS011;5169;50.560;9.714;2023-03-20T16:58:50;2.53;;;2.03;;
10248;SDS011;5169;50.560;9.714;2023-03-20T17:01:18;3.73;;;2.30;;
10248;SDS011;5169;50.560;9.714;2023-03-20T17:04:10;2.67;;;2.03;;
10248;SDS011;5169;50.560;9.714;2023-03-20T17:09:55;3.33;;;1.50;;
10248;SDS011;5169;50.560;9.714;2023-03-20T17:12:33;5.93;;;1.80;;
10248;SDS011;5169;50.560;9.714;2023-03-20T17:15:02;3.30;;;1.90;;
10248;SDS011;5169;50.560;9.714;2023-03-20T17:17:32;2.40;;;1.40;;
10248;SDS011;5169;50.560;9.714;2023-03-20T17:20:01;2.93;;;2.00;;
10248;SDS011;5169;50.560;9.714;2023-03-20T17:22:27;2.43;;;1.63;;
10248;SDS011;5169;50.560;9.714;2023-03-20T17:24:58;3.13;;;1.90;;
10248;SDS011;5169;50.560;9.714;2023-03-20T17:27:24;2.90;;;1.60;;
10248;SDS011;5169;50.560;9.714;2023-03-20T17:29:52;5.83;;;1.80;;
10248;SDS011;5169;50.560;9.714;2023-03-20T17:32:20;3.00;;;1.80;;
10248;SDS011;5169;50.560;9.714;2023-03-20T17:34:48;2.80;;;2.00;;
10248;SDS011;5169;50.560;9.714;2023-03-20T17:37:16;3.63;;;1.93;;
10248;SDS011;5169;50.560;9.714;2023-03-20T17:39:51;3.43;;;1.80;;
10248;SDS011;5169;50.560;9.714;2023-03-20T17:42:19;3.53;;;2.30;;
10248;SDS011;5169;50.560;9.714;2023-03-20T17:44:48;3.10;;;2.00;;
10248;SDS011;5169;50.560;9.714;2023-03-20T17:47:18;2.90;;;2.10;;
10248;SDS011;5169;50.560;9.714;2023-03-20T17:49:50;3.00;;;1.93;;
10248;SDS011;5169;50.560;9.714;2023-03-20T17:52:19;1.97;;;1.67;;
10248;SDS011;5169;50.560;9.714;2023-03-20T17:54:46;3.37;;;1.83;;
10248;SDS011;5169;50.560;9.714;2023-03-20T17:57:34;4.73;;;2.47;;
10248;SDS011;5169;50.560;9.714;2023-03-20T18:00:00;3.83;;;2.23;;
10248;SDS011;5169;50.560;9.714;2023-03-20T18:02:31;3.67;;;1.90;;
10248;SDS011;5169;50.560;9.714;2023-03-20T18:04:56;2.30;;;1.83;;
10248;SDS011;5169;50.560;9.714;2023-03-20T18:07:22;3.03;;;1.97;;
10248;SDS011;5169;50.560;9.714;2023-03-20T18:09:48;2.23;;;1.80;;
10248;SDS011;5169;50.560;9.714;2023-03-20T18:12:15;2.70;;;2.10;;
10248;SDS011;5169;50.560;9.714;2023-03-20T18:14:44;3.47;;;2.10;;